Terminal Aerodrome Forecast
Issued by NWS Kansas City/Pleasant Hill, MO

Home | Current Version | Previous Version | Text Only | Print | Product List | Glossary On
Versions: 1 2 3 4 5 6 7 8 9 10 11 12 13 14 15 16 17 18 19 20 21 22 23 24 25 26 27
000
FTUS43 KEAX 241120
TAFMCI
TAF
KMCI 241120Z 2412/2512 16012KT P6SM FEW045 FEW060 OVC130
     FM241600 21012KT P6SM VCTS SCT040CB BKN120
      TEMPO 2416/2419 4SM -TSRA BKN040CB
     FM250100 33010KT 4SM -TSRA BKN035CB
      TEMPO 2501/2504 VRB20G40KT 2SM TSRA BR BKN020CB=

USA.gov is the U.S. government's official web portal to all federal, state and local government web resources and services.